Time;durP1;ratioP1;P1;durP2;ratioP2;P2;SDS_P1;SDS_P2;PMS_P1;PMS_P2;Temp;Humidity;BMP_temperature;BMP_pressure;BME280_temperature;BME280_humidity;BME280_pressure;Samples;Min_cycle;Max_cycle;Signal;HPM_P1;HPM_P2
2021/03/08 00:01:27;;;;;;;24.93;15.27;;;0.00;99.90;;;;;;5074683;28;20648;-60
2021/03/08 00:03:54;;;;;;;21.40;14.67;;;0.10;99.90;;;;;;5074085;28;20209;-60
2021/03/08 00:06:20;;;;;;;20.03;14.50;;;0.10;99.90;;;;;;5074563;28;20232;-60
2021/03/08 00:08:46;;;;;;;21.73;14.83;;;0.10;99.90;;;;;;5074903;28;20209;-59
2021/03/08 00:11:13;;;;;;;22.07;15.47;;;0.10;99.90;;;;;;5074589;28;20221;-60
2021/03/08 00:13:39;;;;;;;22.70;14.87;;;0.20;99.90;;;;;;5074641;28;20205;-59
2021/03/08 00:16:05;;;;;;;22.27;14.93;;;0.20;99.90;;;;;;5074353;28;20234;-60
2021/03/08 00:18:31;;;;;;;23.80;15.80;;;0.20;99.90;;;;;;5074297;28;20621;-59
2021/03/08 00:20:58;;;;;;;20.73;15.00;;;0.20;99.90;;;;;;5074381;28;20209;-59
2021/03/08 00:23:24;;;;;;;23.73;15.63;;;0.20;99.90;;;;;;5073824;28;20338;-58
2021/03/08 00:25:50;;;;;;;21.53;14.33;;;0.20;99.90;;;;;;5073808;28;20212;-58
2021/03/08 00:28:17;;;;;;;21.47;14.93;;;0.10;99.90;;;;;;5073723;28;20362;-59
2021/03/08 00:30:43;;;;;;;20.37;14.43;;;0.10;99.90;;;;;;5073404;28;20201;-59
2021/03/08 00:33:09;;;;;;;23.10;14.93;;;0.00;99.90;;;;;;5073434;28;20290;-58
2021/03/08 00:35:35;;;;;;;22.93;15.93;;;0.00;99.90;;;;;;5073728;28;20209;-59
2021/03/08 00:38:02;;;;;;;26.23;15.23;;;0.10;99.90;;;;;;5073548;28;20617;-59
2021/03/08 00:40:28;;;;;;;21.50;14.93;;;-0.10;99.90;;;;;;5073866;28;20208;-60
2021/03/08 00:42:55;;;;;;;21.63;14.57;;;-0.20;99.90;;;;;;5073239;28;20201;-60
2021/03/08 00:45:22;;;;;;;20.60;13.80;;;-0.30;99.90;;;;;;5072778;28;20211;-60
2021/03/08 00:47:48;;;;;;;27.17;15.90;;;-0.30;99.90;;;;;;5072839;28;20232;-60
2021/03/08 00:50:16;;;;;;;29.87;18.10;;;-0.40;99.90;;;;;;5073459;28;20246;-61
2021/03/08 00:52:43;;;;;;;37.10;21.03;;;-0.40;99.90;;;;;;5073173;28;20266;-60
2021/03/08 00:55:12;;;;;;;42.00;22.50;;;-0.30;99.90;;;;;;5073028;28;20208;-60
2021/03/08 00:57:38;;;;;;;36.37;20.57;;;-0.30;99.90;;;;;;5072864;28;20244;-60
2021/03/08 01:00:07;;;;;;;21.87;14.27;;;-0.30;99.90;;;;;;5073004;28;20581;-60
2021/03/08 01:02:34;;;;;;;22.23;14.87;;;-0.50;99.90;;;;;;5073225;28;20208;-59
2021/03/08 01:05:00;;;;;;;23.73;15.07;;;-0.50;99.90;;;;;;5072945;28;20205;-59
2021/03/08 01:07:26;;;;;;;32.47;20.93;;;-0.50;99.90;;;;;;5072954;28;20221;-60
2021/03/08 01:09:52;;;;;;;22.73;16.10;;;-0.50;99.90;;;;;;5072676;28;20209;-60
2021/03/08 01:12:19;;;;;;;22.67;15.23;;;-0.60;99.90;;;;;;5072504;28;20232;-59
2021/03/08 01:14:45;;;;;;;21.60;15.57;;;-0.60;99.90;;;;;;5072829;28;20266;-60
2021/03/08 01:17:12;;;;;;;21.77;14.50;;;-0.70;99.90;;;;;;5073021;28;20224;-59
2021/03/08 01:19:38;;;;;;;19.77;14.40;;;-0.80;99.90;;;;;;5072502;28;20208;-60
2021/03/08 01:22:04;;;;;;;17.87;13.50;;;-0.90;99.90;;;;;;5072420;28;20201;-59
2021/03/08 01:24:30;;;;;;;21.60;14.13;;;-1.00;99.90;;;;;;5072575;28;20204;-60
2021/03/08 01:26:57;;;;;;;21.37;14.40;;;-1.10;99.90;;;;;;5071983;28;20220;-61
2021/03/08 01:29:24;;;;;;;20.07;14.30;;;-1.10;99.90;;;;;;5072048;28;20669;-60
2021/03/08 01:31:50;;;;;;;18.67;13.60;;;-1.10;99.90;;;;;;5072851;28;20297;-59
2021/03/08 01:34:16;;;;;;;22.83;14.87;;;-1.10;99.90;;;;;;5072581;28;20207;-60
2021/03/08 01:36:42;;;;;;;18.83;13.73;;;-1.10;99.90;;;;;;5072521;28;20229;-59
2021/03/08 01:39:09;;;;;;;23.17;14.40;;;-1.10;99.90;;;;;;5072634;28;20209;-59
2021/03/08 01:41:35;;;;;;;21.33;14.27;;;-1.10;99.90;;;;;;5072270;28;20735;-61
2021/03/08 01:44:01;;;;;;;20.03;13.60;;;-1.10;99.90;;;;;;5072195;28;20215;-60
2021/03/08 01:46:28;;;;;;;19.07;13.03;;;-1.20;99.90;;;;;;5072229;28;20281;-59
2021/03/08 01:48:54;;;;;;;21.30;13.57;;;-1.20;99.90;;;;;;5072708;28;20205;-59
2021/03/08 01:51:21;;;;;;;20.07;13.87;;;-1.20;99.90;;;;;;5071866;28;20700;-59
2021/03/08 01:53:48;;;;;;;21.50;14.00;;;-1.20;99.90;;;;;;5071742;28;20210;-59
2021/03/08 01:56:15;;;;;;;22.43;14.83;;;-1.20;99.90;;;;;;5071082;28;20701;-60
2021/03/08 01:58:41;;;;;;;21.60;14.77;;;-1.20;99.90;;;;;;5071400;28;20677;-59
2021/03/08 02:01:08;;;;;;;23.13;14.53;;;-1.20;99.90;;;;;;5072020;28;20254;-60
2021/03/08 02:03:35;;;;;;;20.53;14.50;;;-1.20;99.90;;;;;;5071517;28;20209;-59
2021/03/08 02:06:04;;;;;;;23.33;14.87;;;-1.20;99.90;;;;;;5071834;28;20225;-60
2021/03/08 02:08:30;;;;;;;22.67;14.93;;;-1.20;99.90;;;;;;5071812;28;20208;-59
2021/03/08 02:10:56;;;;;;;20.43;14.03;;;-1.10;99.90;;;;;;5071689;28;20209;-59
2021/03/08 02:13:33;;;;;;;22.70;14.37;;;-1.10;99.90;;;;;;5071670;28;20673;-60
2021/03/08 02:16:02;;;;;;;21.17;14.37;;;-1.10;99.90;;;;;;5071604;28;20252;-59
2021/03/08 02:18:39;;;;;;;22.87;15.10;;;-1.20;99.90;;;;;;5071571;28;20715;-59
2021/03/08 02:21:39;;;;;;;23.13;14.87;;;-1.20;99.90;;;;;;5071905;28;20215;-60
2021/03/08 02:24:32;;;;;;;26.33;16.07;;;-1.20;99.90;;;;;;5050687;28;20205;-60
2021/03/08 02:27:03;;;;;;;23.50;15.37;;;-1.20;99.90;;;;;;5071544;28;20233;-58
2021/03/08 02:30:06;;;;;;;24.60;15.73;;;-1.20;99.90;;;;;;5071555;28;20205;-58
2021/03/08 02:32:37;;;;;;;25.27;15.47;;;-1.20;99.90;;;;;;5029387;28;20252;-59
2021/03/08 02:35:09;;;;;;;21.70;14.60;;;-1.20;99.90;;;;;;5064992;28;20209;-59
2021/03/08 02:37:41;;;;;;;22.50;14.63;;;-1.30;99.90;;;;;;5071932;28;20241;-60
2021/03/08 02:40:13;;;;;;;21.63;14.67;;;-1.30;99.90;;;;;;5071582;28;20227;-59
2021/03/08 02:42:42;;;;;;;19.77;14.40;;;-1.40;99.90;;;;;;5071966;28;20552;-59
2021/03/08 02:45:11;;;;;;;21.60;14.90;;;-1.50;99.90;;;;;;5071643;28;20205;-59
2021/03/08 02:47:44;;;;;;;19.37;13.50;;;-1.60;99.90;;;;;;5071546;28;20237;-58
2021/03/08 02:50:13;;;;;;;20.73;14.37;;;-1.50;99.90;;;;;;5071472;28;20209;-60
2021/03/08 02:52:54;;;;;;;19.33;13.37;;;-1.50;99.90;;;;;;5071307;28;20229;-59
2021/03/08 02:55:22;;;;;;;20.50;13.93;;;-1.50;99.90;;;;;;5071227;28;20238;-58
2021/03/08 02:57:51;;;;;;;21.83;15.20;;;-1.60;99.90;;;;;;5071828;28;20248;-60
2021/03/08 03:00:19;;;;;;;24.37;14.63;;;-1.60;99.90;;;;;;5071197;28;20201;-60
2021/03/08 03:02:47;;;;;;;28.37;16.67;;;-1.70;99.90;;;;;;5071126;28;20209;-61
2021/03/08 03:05:15;;;;;;;27.13;17.37;;;-1.80;99.90;;;;;;5070900;28;20307;-60
2021/03/08 03:07:45;;;;;;;28.10;18.43;;;-1.90;99.90;;;;;;5071711;28;20239;-60
2021/03/08 03:10:13;;;;;;;28.80;18.50;;;-1.90;99.90;;;;;;5075268;28;20215;-60
2021/03/08 03:12:41;;;;;;;30.00;17.87;;;-1.90;99.90;;;;;;5075311;28;20224;-60
2021/03/08 03:15:10;;;;;;;28.37;17.30;;;-1.80;99.90;;;;;;5075460;28;20205;-61
2021/03/08 03:17:37;;;;;;;26.77;16.83;;;-1.90;99.90;;;;;;5074741;28;20704;-60
2021/03/08 03:20:09;;;;;;;23.13;15.67;;;-2.00;99.90;;;;;;5074828;28;20665;-60
2021/03/08 03:22:37;;;;;;;21.33;14.57;;;-2.10;99.90;;;;;;5075179;28;20209;-60
2021/03/08 03:25:05;;;;;;;21.87;14.57;;;-2.10;99.90;;;;;;5074963;28;20208;-60
2021/03/08 03:27:32;;;;;;;22.27;14.83;;;-2.10;99.90;;;;;;5074554;28;20225;-60
2021/03/08 03:30:00;;;;;;;21.90;14.40;;;-2.10;99.90;;;;;;5074949;28;20208;-60
2021/03/08 03:32:27;;;;;;;20.17;14.60;;;-2.20;99.90;;;;;;5074503;28;20225;-60
2021/03/08 03:34:55;;;;;;;22.27;14.90;;;-2.20;99.90;;;;;;5074765;28;20220;-60
2021/03/08 03:37:27;;;;;;;22.93;14.70;;;-2.20;99.90;;;;;;5074596;28;20278;-60
2021/03/08 03:39:53;;;;;;;24.93;15.73;;;-2.20;99.90;;;;;;5074799;28;20569;-60
2021/03/08 03:42:20;;;;;;;22.30;15.00;;;-2.10;99.90;;;;;;5074923;28;20210;-60
2021/03/08 03:44:46;;;;;;;21.67;14.57;;;-2.00;99.90;;;;;;5074841;28;20209;-60
2021/03/08 03:47:14;;;;;;;21.63;15.60;;;-2.00;99.90;;;;;;5074799;28;20229;-60
2021/03/08 03:49:40;;;;;;;23.33;15.07;;;-2.00;99.90;;;;;;5074499;28;20201;-60
2021/03/08 03:52:07;;;;;;;23.63;15.40;;;-1.90;99.90;;;;;;5074577;28;20224;-60
2021/03/08 03:54:34;;;;;;;24.93;14.63;;;-1.90;99.90;;;;;;5074455;28;20208;-59
2021/03/08 03:57:05;;;;;;;23.33;14.90;;;-1.80;99.90;;;;;;5074101;28;20229;-60
2021/03/08 03:59:42;;;;;;;23.30;14.93;;;-1.80;99.90;;;;;;5073990;28;20219;-60
2021/03/08 04:02:13;;;;;;;22.77;15.30;;;-1.80;99.90;;;;;;5074126;28;20676;-60
2021/03/08 04:04:44;;;;;;;20.87;14.17;;;-1.70;99.90;;;;;;5074138;28;20239;-60
2021/03/08 04:07:10;;;;;;;21.17;14.80;;;-1.70;99.90;;;;;;5073900;28;20229;-60
2021/03/08 04:09:40;;;;;;;21.33;14.80;;;-1.70;99.90;;;;;;5073525;28;20205;-60
2021/03/08 04:12:09;;;;;;;28.37;15.20;;;-1.70;99.90;;;;;;5073858;28;20221;-60
2021/03/08 04:14:38;;;;;;;26.57;15.27;;;-1.60;99.90;;;;;;5073652;28;20213;-60
2021/03/08 04:17:06;;;;;;;22.07;14.50;;;-1.60;99.90;;;;;;5073857;28;20221;-61
2021/03/08 04:19:34;;;;;;;24.33;16.67;;;-1.60;99.90;;;;;;5072770;28;20204;-60
2021/03/08 04:22:03;;;;;;;25.73;16.73;;;-1.60;99.90;;;;;;5073665;28;20232;-60
2021/03/08 04:24:31;;;;;;;21.30;14.60;;;-1.70;99.90;;;;;;5073238;28;20563;-60
2021/03/08 04:27:05;;;;;;;21.23;15.00;;;-1.80;99.90;;;;;;5073509;28;20650;-60
2021/03/08 04:29:32;;;;;;;24.30;14.23;;;-1.90;99.90;;;;;;5073287;28;20213;-60
2021/03/08 04:32:00;;;;;;;19.53;14.27;;;-2.00;99.90;;;;;;5073294;28;20641;-60
2021/03/08 04:34:27;;;;;;;20.13;14.03;;;-2.20;99.90;;;;;;5073325;28;20577;-61
2021/03/08 04:36:54;;;;;;;21.73;13.97;;;-2.20;99.90;;;;;;5073398;28;20232;-60
2021/03/08 04:39:20;;;;;;;20.23;14.13;;;-2.20;99.90;;;;;;5073292;28;20311;-60
2021/03/08 04:41:46;;;;;;;20.67;14.23;;;-2.20;99.90;;;;;;5073322;28;20224;-60
2021/03/08 04:44:14;;;;;;;21.90;14.00;;;-2.20;99.90;;;;;;5073270;28;20205;-61
2021/03/08 04:46:40;;;;;;;23.37;14.83;;;-2.10;99.90;;;;;;5073380;28;20224;-61
2021/03/08 04:49:07;;;;;;;21.80;14.63;;;-2.10;99.90;;;;;;5073514;28;20205;-61
2021/03/08 04:51:35;;;;;;;21.53;14.17;;;-2.10;99.90;;;;;;5072873;28;20613;-62
2021/03/08 04:54:02;;;;;;;23.23;15.47;;;-2.00;99.90;;;;;;5073126;28;20250;-61
2021/03/08 04:56:31;;;;;;;21.00;14.27;;;-2.00;99.90;;;;;;5073129;28;20751;-60
2021/03/08 04:58:57;;;;;;;21.73;14.83;;;-1.90;99.90;;;;;;5073084;28;20208;-62
2021/03/08 05:01:27;;;;;;;24.13;14.37;;;-1.90;99.90;;;;;;5072998;28;20205;-61
2021/03/08 05:03:55;;;;;;;21.00;14.60;;;-1.90;99.90;;;;;;5072655;28;20212;-62
2021/03/08 05:06:22;;;;;;;21.53;15.83;;;-1.90;99.90;;;;;;5072899;28;20225;-61
2021/03/08 05:08:50;;;;;;;21.33;13.90;;;-1.80;99.90;;;;;;5072739;28;20213;-62
2021/03/08 05:11:17;;;;;;;22.50;15.10;;;-1.80;99.90;;;;;;5072931;28;20262;-61
2021/03/08 05:13:44;;;;;;;20.53;13.87;;;-1.80;99.90;;;;;;5072388;28;20677;-61
2021/03/08 05:16:10;;;;;;;20.40;14.90;;;-1.90;99.90;;;;;;5072323;28;20229;-61
2021/03/08 05:18:38;;;;;;;21.10;14.33;;;-1.90;99.90;;;;;;5072467;28;20213;-61
2021/03/08 05:21:05;;;;;;;19.70;14.13;;;-2.00;99.90;;;;;;5072680;28;20200;-61
2021/03/08 05:23:32;;;;;;;24.07;14.07;;;-2.00;99.90;;;;;;5072345;28;20591;-61
2021/03/08 05:26:01;;;;;;;19.80;13.63;;;-2.00;99.90;;;;;;5072589;28;20578;-61
2021/03/08 05:28:27;;;;;;;21.23;14.50;;;-2.10;99.90;;;;;;5072365;28;20428;-61
2021/03/08 05:30:56;;;;;;;21.40;14.53;;;-2.20;99.90;;;;;;5072719;28;20219;-61
2021/03/08 05:33:25;;;;;;;23.17;14.73;;;-2.30;99.90;;;;;;5073256;28;20231;-61
2021/03/08 05:35:55;;;;;;;25.20;14.77;;;-2.30;99.90;;;;;;5072979;28;20262;-61
2021/03/08 05:38:22;;;;;;;22.27;14.70;;;-2.40;99.90;;;;;;5072575;28;20205;-64
2021/03/08 05:40:57;;;;;;;23.70;14.83;;;-2.40;99.90;;;;;;5072699;28;20208;-61
2021/03/08 05:43:27;;;;;;;25.37;15.23;;;-2.40;99.90;;;;;;5072353;28;20203;-61
2021/03/08 05:45:56;;;;;;;25.87;15.93;;;-2.40;99.90;;;;;;5072293;28;20205;-61
2021/03/08 05:48:54;;;;;;;24.10;15.63;;;-2.50;99.90;;;;;;5072621;28;20204;-61
2021/03/08 05:51:53;;;;;;;24.10;16.13;;;-2.50;99.90;;;;;;5072167;28;20673;-61
2021/03/08 05:54:39;;;;;;;21.63;15.13;;;-2.50;99.90;;;;;;5071782;28;20697;-61
2021/03/08 05:57:25;;;;;;;23.83;15.43;;;-2.40;99.90;;;;;;5072251;28;20294;-61
2021/03/08 06:00:03;;;;;;;25.60;16.37;;;-2.30;99.90;;;;;;5071908;28;20700;-61
2021/03/08 06:02:53;;;;;;;23.63;15.33;;;-2.20;99.90;;;;;;5072361;28;20189;-61
2021/03/08 06:06:00;;;;;;;24.37;15.83;;;-2.10;99.90;;;;;;5072091;28;20209;-61
2021/03/08 06:08:54;;;;;;;26.97;16.53;;;-2.00;99.90;;;;;;5071857;28;20208;-61
2021/03/08 06:11:23;;;;;;;24.20;16.00;;;-2.10;99.90;;;;;;5072362;28;20208;-61
2021/03/08 06:13:56;;;;;;;21.47;14.70;;;-2.10;99.90;;;;;;5071912;28;20566;-61
2021/03/08 06:16:27;;;;;;;26.40;16.23;;;-2.10;99.90;;;;;;5071801;28;20251;-61
2021/03/08 06:18:55;;;;;;;21.03;14.40;;;-2.10;99.90;;;;;;5071374;28;20200;-60
2021/03/08 06:21:21;;;;;;;20.83;14.53;;;-2.10;99.90;;;;;;5071430;28;20675;-61
2021/03/08 06:23:50;;;;;;;24.20;14.97;;;-2.10;99.90;;;;;;5071756;28;20216;-61
2021/03/08 06:26:16;;;;;;;23.27;15.10;;;-2.10;99.90;;;;;;5071642;28;20228;-61
2021/03/08 06:28:43;;;;;;;25.27;14.83;;;-2.00;99.90;;;;;;5071614;28;20215;-61
2021/03/08 06:31:09;;;;;;;22.67;14.60;;;-1.90;99.90;;;;;;5071535;28;20213;-61
2021/03/08 06:33:37;;;;;;;23.00;15.90;;;-1.80;99.90;;;;;;5071248;28;20224;-61
2021/03/08 06:36:04;;;;;;;24.07;15.67;;;-1.60;99.90;;;;;;5071614;28;20299;-61
2021/03/08 06:38:32;;;;;;;25.60;16.77;;;-1.40;99.90;;;;;;5071542;28;20352;-61
2021/03/08 06:40:59;;;;;;;27.80;16.70;;;-1.30;99.90;;;;;;5071504;28;20201;-61
2021/03/08 06:43:27;;;;;;;26.30;17.00;;;-0.70;99.90;;;;;;5070868;28;20228;-61
2021/03/08 06:45:53;;;;;;;25.27;15.43;;;0.20;99.90;;;;;;5071439;28;20209;-59
2021/03/08 06:48:19;;;;;;;20.13;14.97;;;1.30;99.90;;;;;;5071693;28;20209;-59
2021/03/08 06:50:46;;;;;;;22.10;14.63;;;2.30;99.90;;;;;;5071083;28;20262;-59
2021/03/08 06:53:28;;;;;;;18.63;13.93;;;3.30;99.90;;;;;;5071282;28;20236;-59
2021/03/08 06:56:13;;;;;;;20.17;13.67;;;4.40;99.40;;;;;;5071275;28;20209;-59
2021/03/08 06:58:40;;;;;;;20.27;13.77;;;5.50;96.90;;;;;;5070988;28;20278;-60
2021/03/08 07:01:28;;;;;;;17.90;13.07;;;6.50;94.60;;;;;;5071105;28;20208;-59
2021/03/08 07:03:54;;;;;;;18.47;12.50;;;7.20;91.20;;;;;;5070628;28;20207;-60
2021/03/08 07:06:21;;;;;;;15.97;11.90;;;7.30;88.80;;;;;;5070634;28;20220;-61
2021/03/08 07:08:47;;;;;;;22.63;13.83;;;7.10;88.50;;;;;;5071287;28;20212;-62
2021/03/08 07:11:16;;;;;;;20.03;13.20;;;7.00;88.40;;;;;;5071338;28;20212;-61
2021/03/08 07:13:43;;;;;;;18.37;13.10;;;7.20;87.80;;;;;;5070866;28;20532;-62
2021/03/08 07:16:09;;;;;;;19.13;13.63;;;7.20;87.40;;;;;;5071267;28;20229;-60
2021/03/08 07:18:35;;;;;;;18.13;13.30;;;7.30;87.90;;;;;;5070945;28;20205;-61
2021/03/08 07:21:15;;;;;;;17.50;13.37;;;7.60;86.90;;;;;;5071044;28;20209;-61
2021/03/08 07:23:42;;;;;;;18.17;14.27;;;7.90;86.30;;;;;;5070879;28;20210;-61
2021/03/08 07:26:10;;;;;;;21.47;14.53;;;8.30;85.80;;;;;;5071096;28;20220;-61
2021/03/08 07:28:37;;;;;;;19.50;13.73;;;8.90;84.00;;;;;;5070759;28;20236;-61
2021/03/08 07:31:04;;;;;;;17.83;14.03;;;9.40;82.90;;;;;;5071112;28;20215;-61
2021/03/08 07:33:31;;;;;;;16.70;12.83;;;9.80;81.40;;;;;;5070772;28;20259;-61
2021/03/08 07:35:57;;;;;;;20.50;13.43;;;10.20;79.10;;;;;;5071203;28;20255;-61
2021/03/08 07:38:30;;;;;;;30.93;24.40;;;10.70;77.00;;;;;;5070717;28;20633;-62
2021/03/08 07:41:12;;;;;;;29.60;17.93;;;11.30;75.80;;;;;;5070662;28;20302;-61
2021/03/08 07:43:39;;;;;;;19.43;13.63;;;12.00;72.80;;;;;;5071293;28;20209;-62
2021/03/08 07:46:06;;;;;;;14.50;13.00;;;12.40;70.30;;;;;;5070980;28;20225;-62
2021/03/08 07:48:32;;;;;;;14.77;11.63;;;12.40;68.50;;;;;;5070370;28;20212;-62
2021/03/08 07:51:06;;;;;;;14.63;12.00;;;12.50;67.50;;;;;;5070928;28;20672;-63
2021/03/08 07:53:34;;;;;;;15.87;12.43;;;11.90;67.70;;;;;;5070270;28;20696;-62
2021/03/08 07:56:02;;;;;;;17.07;13.27;;;11.30;68.30;;;;;;5073102;28;20272;-62
2021/03/08 07:58:30;;;;;;;19.37;13.00;;;10.50;70.60;;;;;;5074093;28;20227;-63
2021/03/08 08:00:58;;;;;;;16.13;13.07;;;9.70;73.70;;;;;;5074009;28;20201;-62
2021/03/08 08:03:25;;;;;;;18.30;12.80;;;9.00;75.50;;;;;;5073826;28;20679;-63
2021/03/08 08:05:55;;;;;;;19.60;13.37;;;8.30;76.90;;;;;;5073777;28;20213;-62
2021/03/08 08:08:24;;;;;;;21.00;14.00;;;7.60;78.70;;;;;;5074025;28;20204;-60
2021/03/08 08:10:52;;;;;;;19.70;13.70;;;7.10;80.90;;;;;;5074292;28;20688;-61
2021/03/08 08:13:22;;;;;;;24.60;16.07;;;6.60;82.40;;;;;;5075408;28;20255;-61
2021/03/08 08:15:49;;;;;;;29.33;16.57;;;6.30;84.00;;;;;;5074825;28;20205;-61
2021/03/08 08:18:20;;;;;;;24.87;16.83;;;6.10;85.30;;;;;;5073909;28;20603;-61
2021/03/08 08:20:49;;;;;;;28.97;14.93;;;5.80;86.70;;;;;;5073581;28;20208;-60
2021/03/08 08:23:18;;;;;;;23.70;15.07;;;5.70;87.70;;;;;;5073559;28;20211;-60
2021/03/08 08:25:45;;;;;;;25.00;13.93;;;5.50;88.50;;;;;;5074036;28;20688;-60
2021/03/08 08:28:12;;;;;;;18.27;13.77;;;5.40;89.80;;;;;;5073378;28;20208;-60
2021/03/08 08:30:39;;;;;;;26.17;14.67;;;5.20;90.10;;;;;;5073505;28;20212;-60
2021/03/08 08:33:05;;;;;;;25.70;15.07;;;5.10;90.50;;;;;;5073319;28;20739;-60
2021/03/08 08:35:33;;;;;;;22.73;14.50;;;5.10;90.80;;;;;;5073020;28;20205;-59
2021/03/08 08:38:20;;;;;;;22.83;14.47;;;5.20;90.90;;;;;;5072963;28;20240;-60
2021/03/08 08:40:46;;;;;;;20.20;13.20;;;5.10;91.10;;;;;;5073561;28;20243;-60
2021/03/08 08:43:22;;;;;;;25.30;14.73;;;5.00;91.30;;;;;;5073377;28;20204;-60
2021/03/08 08:45:50;;;;;;;19.87;14.20;;;4.90;91.70;;;;;;5073029;28;20209;-60
2021/03/08 08:48:17;;;;;;;21.63;14.97;;;4.90;91.80;;;;;;5072518;28;20209;-60
2021/03/08 08:50:46;;;;;;;18.13;12.57;;;5.10;91.90;;;;;;5073098;28;20205;-60
2021/03/08 08:53:13;;;;;;;16.20;11.90;;;5.20;91.90;;;;;;5072978;28;20225;-60
2021/03/08 08:55:48;;;;;;;16.67;11.47;;;5.10;91.80;;;;;;5072879;28;20222;-60
2021/03/08 08:58:25;;;;;;;13.90;11.47;;;5.10;91.80;;;;;;5072955;28;20211;-60
2021/03/08 09:01:41;;;;;;;16.43;10.90;;;5.20;91.70;;;;;;5072854;28;20208;-60
2021/03/08 09:04:10;;;;;;;15.40;10.43;;;5.20;91.60;;;;;;5072622;28;20205;-60
2021/03/08 09:06:51;;;;;;;16.00;11.33;;;5.20;91.90;;;;;;5072247;28;20593;-60
2021/03/08 09:09:20;;;;;;;19.00;11.90;;;5.30;91.90;;;;;;5072488;28;20216;-60
2021/03/08 09:11:55;;;;;;;16.43;12.93;;;5.50;91.60;;;;;;5072952;28;20200;-60
2021/03/08 09:14:41;;;;;;;17.90;11.90;;;5.50;91.70;;;;;;5072712;28;20233;-60
2021/03/08 09:17:13;;;;;;;14.00;11.47;;;5.50;91.40;;;;;;5072570;28;20228;-60
2021/03/08 09:19:41;;;;;;;24.23;16.00;;;5.60;91.50;;;;;;5072290;28;20277;-60
2021/03/08 09:22:44;;;;;;;24.93;18.07;;;5.60;91.50;;;;;;5072209;28;20212;-62
2021/03/08 09:25:35;;;;;;;16.10;12.07;;;5.60;91.30;;;;;;5072515;28;20204;-60
2021/03/08 09:28:10;;;;;;;13.13;10.37;;;5.80;91.20;;;;;;5061657;28;20570;-61
2021/03/08 09:30:39;;;;;;;13.17;11.43;;;5.80;91.20;;;;;;5071883;28;20669;-60
2021/03/08 09:33:06;;;;;;;13.47;10.70;;;5.80;91.50;;;;;;5072141;28;20297;-62
2021/03/08 09:35:35;;;;;;;13.13;10.63;;;5.90;91.20;;;;;;5072258;28;20212;-61
2021/03/08 09:38:04;;;;;;;14.37;10.17;;;5.90;91.00;;;;;;5071916;28;20213;-60
2021/03/08 09:40:32;;;;;;;13.57;10.37;;;6.00;90.90;;;;;;5071865;28;20201;-61
2021/03/08 09:42:59;;;;;;;13.17;10.73;;;6.20;90.70;;;;;;5071742;28;20224;-61
2021/03/08 09:45:30;;;;;;;13.73;10.13;;;6.10;90.70;;;;;;5071460;28;20212;-61
2021/03/08 09:47:57;;;;;;;16.07;10.80;;;6.30;90.70;;;;;;5071595;28;20225;-61
2021/03/08 09:50:26;;;;;;;14.07;10.63;;;6.40;90.40;;;;;;5071881;28;20207;-61
2021/03/08 09:52:54;;;;;;;13.87;10.80;;;6.40;90.50;;;;;;5072383;28;20228;-61
2021/03/08 09:55:24;;;;;;;12.43;10.27;;;6.50;90.10;;;;;;5071974;28;20244;-61
2021/03/08 09:57:51;;;;;;;12.73;10.00;;;6.60;89.70;;;;;;5071423;28;20244;-63
2021/03/08 10:00:19;;;;;;;11.97;10.03;;;6.70;89.30;;;;;;5071703;28;20204;-62
2021/03/08 10:02:45;;;;;;;13.40;10.43;;;6.80;89.40;;;;;;5071525;28;20200;-62
2021/03/08 10:05:13;;;;;;;14.47;10.67;;;6.90;89.50;;;;;;5071374;28;20254;-62
2021/03/08 10:07:53;;;;;;;12.77;10.80;;;7.10;89.10;;;;;;5071573;28;20606;-62
2021/03/08 10:10:22;;;;;;;15.30;11.23;;;7.20;88.40;;;;;;5071783;28;20583;-61
2021/03/08 10:12:57;;;;;;;12.67;10.33;;;7.40;88.00;;;;;;5072314;28;20282;-61
2021/03/08 10:15:23;;;;;;;12.37;10.70;;;7.50;86.80;;;;;;5071898;28;20239;-62
2021/03/08 10:17:59;;;;;;;11.50;9.40;;;7.70;86.60;;;;;;5070815;28;20227;-62
2021/03/08 10:20:26;;;;;;;12.70;9.43;;;7.80;85.80;;;;;;5071410;28;20207;-62
2021/03/08 10:22:53;;;;;;;12.00;9.30;;;7.90;85.30;;;;;;5071495;28;20227;-62
2021/03/08 10:25:22;;;;;;;12.20;8.77;;;8.00;85.10;;;;;;5071673;28;20205;-61
2021/03/08 10:27:52;;;;;;;12.17;8.73;;;8.10;84.50;;;;;;5071420;28;20225;-61
2021/03/08 10:30:20;;;;;;;10.90;9.77;;;8.00;83.70;;;;;;5071688;28;20696;-61
2021/03/08 10:32:47;;;;;;;11.87;9.63;;;7.70;84.30;;;;;;5071150;28;20723;-61
2021/03/08 10:35:14;;;;;;;10.73;9.10;;;7.30;85.20;;;;;;5071070;28;20215;-62
2021/03/08 10:37:42;;;;;;;11.97;9.07;;;7.40;85.20;;;;;;5068950;28;20708;-62
2021/03/08 10:40:10;;;;;;;9.57;8.10;;;7.40;84.10;;;;;;5070805;28;20220;-61
2021/03/08 10:42:37;;;;;;;11.73;8.40;;;7.50;84.20;;;;;;5070838;28;20211;-60
2021/03/08 10:45:06;;;;;;;8.93;8.00;;;7.70;83.90;;;;;;5050781;28;20203;-63
2021/03/08 10:47:32;;;;;;;11.03;9.30;;;7.90;83.50;;;;;;5055391;28;20221;-62
2021/03/08 10:49:58;;;;;;;10.10;8.53;;;8.10;82.90;;;;;;5050522;28;20202;-62
2021/03/08 10:52:25;;;;;;;9.50;8.27;;;8.00;83.20;;;;;;5051077;28;20225;-61
2021/03/08 10:54:51;;;;;;;10.17;8.33;;;8.10;82.90;;;;;;5059615;28;20286;-62
2021/03/08 10:57:17;;;;;;;12.07;7.80;;;8.40;82.10;;;;;;5070843;28;20289;-63
2021/03/08 10:59:48;;;;;;;9.80;8.77;;;8.50;80.40;;;;;;5070707;28;20691;-64
2021/03/08 11:02:16;;;;;;;9.23;8.33;;;8.50;79.60;;;;;;5070601;28;20215;-64
2021/03/08 11:04:43;;;;;;;8.47;7.63;;;8.30;80.00;;;;;;5070662;28;20209;-63
2021/03/08 11:07:10;;;;;;;9.60;8.60;;;8.40;80.00;;;;;;5070934;28;20224;-63
2021/03/08 11:09:38;;;;;;;10.00;8.37;;;8.40;80.40;;;;;;5070622;28;20205;-63
2021/03/08 11:12:15;;;;;;;11.10;7.57;;;8.50;79.70;;;;;;5070476;28;20211;-59
2021/03/08 11:14:49;;;;;;;9.97;7.80;;;8.50;77.60;;;;;;5070454;28;20205;-61
2021/03/08 11:17:16;;;;;;;9.57;7.50;;;8.50;77.20;;;;;;5070919;28;20228;-61
2021/03/08 11:19:42;;;;;;;11.33;7.63;;;8.50;77.40;;;;;;5070500;28;20209;-61
2021/03/08 11:22:09;;;;;;;8.73;6.67;;;8.60;76.70;;;;;;5070955;28;20205;-61
2021/03/08 11:24:44;;;;;;;7.70;6.83;;;8.60;76.60;;;;;;5070647;28;20215;-59
2021/03/08 11:27:20;;;;;;;7.53;6.33;;;8.60;76.30;;;;;;5070899;28;20228;-61
2021/03/08 11:29:59;;;;;;;7.70;6.10;;;8.60;74.20;;;;;;5073077;28;20201;-61
2021/03/08 11:32:26;;;;;;;8.53;5.73;;;8.70;73.60;;;;;;5074769;28;20232;-61
2021/03/08 11:34:53;;;;;;;6.87;5.70;;;8.80;72.20;;;;;;5074329;28;20209;-61
2021/03/08 11:37:21;;;;;;;9.27;6.03;;;8.80;72.20;;;;;;5074279;28;20290;-61
2021/03/08 11:39:50;;;;;;;5.93;5.33;;;8.70;72.00;;;;;;5074053;28;20251;-60
2021/03/08 11:42:17;;;;;;;8.57;5.47;;;8.90;72.00;;;;;;5074376;28;20211;-61
2021/03/08 11:44:45;;;;;;;7.93;5.27;;;8.80;68.80;;;;;;5073966;28;20637;-61
2021/03/08 11:47:12;;;;;;;6.90;5.80;;;8.60;69.40;;;;;;5074208;28;20225;-61
2021/03/08 11:49:40;;;;;;;6.53;5.70;;;8.60;69.00;;;;;;5074241;28;20205;-60
2021/03/08 11:52:07;;;;;;;7.17;5.20;;;8.70;69.10;;;;;;5074337;28;20263;-61
2021/03/08 11:54:34;;;;;;;6.70;5.03;;;8.70;68.60;;;;;;5073684;28;20205;-61
2021/03/08 11:57:01;;;;;;;7.20;5.83;;;8.70;68.30;;;;;;5074135;28;20247;-61
2021/03/08 11:59:28;;;;;;;7.23;5.67;;;8.90;67.60;;;;;;5073811;28;20631;-61
2021/03/08 12:01:55;;;;;;;7.63;5.63;;;8.80;68.20;;;;;;5074169;28;20209;-60
2021/03/08 12:04:22;;;;;;;7.77;5.77;;;9.10;68.00;;;;;;5074062;28;20216;-61
2021/03/08 12:06:48;;;;;;;6.40;5.43;;;9.40;66.20;;;;;;5073561;28;20233;-61
2021/03/08 12:09:15;;;;;;;6.73;5.23;;;9.50;65.90;;;;;;5074030;28;20266;-61
2021/03/08 12:11:41;;;;;;;7.23;5.63;;;9.50;65.70;;;;;;5073936;28;20753;-61
2021/03/08 12:14:08;;;;;;;7.13;5.47;;;9.50;65.60;;;;;;5073498;28;20225;-61
2021/03/08 12:16:34;;;;;;;6.60;5.40;;;9.40;65.50;;;;;;5073993;28;20225;-61
2021/03/08 12:19:01;;;;;;;6.07;5.40;;;9.50;65.70;;;;;;5073379;28;20223;-61
2021/03/08 12:21:29;;;;;;;6.77;5.40;;;9.50;65.10;;;;;;5073566;28;20201;-62
2021/03/08 12:23:55;;;;;;;7.13;5.40;;;9.60;64.70;;;;;;5073440;28;20201;-62
2021/03/08 12:26:21;;;;;;;6.93;5.20;;;9.40;64.50;;;;;;5073474;28;20224;-62
2021/03/08 12:28:48;;;;;;;6.43;5.13;;;9.50;65.70;;;;;;5073358;28;20213;-62
2021/03/08 12:31:15;;;;;;;7.70;4.90;;;9.60;63.50;;;;;;5073302;28;20227;-61
2021/03/08 12:33:41;;;;;;;6.33;5.10;;;9.50;64.00;;;;;;5073096;28;20232;-61
2021/03/08 12:36:08;;;;;;;6.60;5.20;;;9.50;64.20;;;;;;5073140;28;20225;-61
2021/03/08 12:38:36;;;;;;;6.17;5.10;;;9.60;63.70;;;;;;5073337;28;20440;-61
2021/03/08 12:41:02;;;;;;;8.17;5.07;;;9.70;63.00;;;;;;5072497;28;20223;-62
2021/03/08 12:43:29;;;;;;;6.50;5.40;;;9.80;63.40;;;;;;5073066;28;20250;-62
2021/03/08 12:45:55;;;;;;;11.67;5.20;;;9.70;62.10;;;;;;5073340;28;20230;-62
2021/03/08 12:48:21;;;;;;;6.67;4.90;;;9.60;62.20;;;;;;5072980;28;20693;-61